Time;durP1;ratioP1;P1;durP2;ratioP2;P2;SDS_P1;SDS_P2;PMS_P1;PMS_P2;Temp;Humidity;BMP_temperature;BMP_pressure;BME280_temperature;BME280_humidity;BME280_pressure;Samples;Min_cycle;Max_cycle;Signal;HPM_P1;HPM_P2
2022/08/08 00:02:08;;;;;;;2.93;2.33;;;13.80;99.90;;;;;;5095798;28;20224;-78
2022/08/08 00:04:41;;;;;;;3.07;2.67;;;13.70;99.90;;;;;;5095706;28;20253;-80
2022/08/08 00:07:16;;;;;;;2.63;2.43;;;13.50;99.90;;;;;;5095707;28;20606;-79
2022/08/08 00:09:55;;;;;;;3.10;2.90;;;13.30;99.90;;;;;;5095484;28;20253;-79
2022/08/08 00:12:33;;;;;;;2.93;2.60;;;13.20;99.90;;;;;;5095383;28;20258;-79
2022/08/08 00:15:06;;;;;;;3.23;2.90;;;13.10;99.90;;;;;;5095488;28;20261;-79
2022/08/08 00:17:40;;;;;;;3.37;2.67;;;13.00;99.90;;;;;;5095268;28;20660;-80
2022/08/08 00:20:09;;;;;;;3.43;3.13;;;12.90;99.90;;;;;;5095389;28;20208;-79
2022/08/08 00:22:42;;;;;;;3.07;2.77;;;13.00;99.90;;;;;;5095115;28;20224;-79
2022/08/08 00:25:15;;;;;;;2.83;2.63;;;13.10;99.90;;;;;;5095285;28;20193;-80
2022/08/08 00:27:43;;;;;;;6.53;6.03;;;12.90;99.90;;;;;;5094996;28;20651;-79
2022/08/08 00:30:12;;;;;;;3.77;2.87;;;12.80;99.90;;;;;;5095217;28;20250;-79
2022/08/08 00:32:45;;;;;;;3.20;2.90;;;12.80;99.90;;;;;;5095160;28;20201;-79
2022/08/08 00:35:38;;;;;;;4.00;3.13;;;12.80;99.90;;;;;;5095075;28;20200;-79
2022/08/08 00:38:17;;;;;;;3.13;2.83;;;12.90;99.90;;;;;;5078063;28;20196;-81
2022/08/08 00:41:23;;;;;;;3.37;3.07;;;12.80;99.90;;;;;;5094793;28;20224;-79
2022/08/08 00:44:22;;;;;;;3.17;2.90;;;12.60;99.90;;;;;;5095063;28;20598;-79
2022/08/08 00:47:24;;;;;;;3.70;3.30;;;12.50;99.90;;;;;;5097138;28;20265;-79
2022/08/08 00:50:36;;;;;;;5.53;3.07;;;12.50;99.90;;;;;;5097901;28;20332;-79
2022/08/08 00:53:11;;;;;;;3.43;3.13;;;12.50;99.90;;;;;;5097290;28;20212;-80
2022/08/08 00:56:22;;;;;;;3.70;3.30;;;12.40;99.90;;;;;;5098246;28;20244;-80
2022/08/08 00:59:21;;;;;;;3.40;3.10;;;12.40;99.90;;;;;;5023126;28;20261;-79
2022/08/08 01:02:01;;;;;;;4.53;3.33;;;12.30;99.90;;;;;;5094544;28;20303;-80
2022/08/08 01:04:57;;;;;;;2.93;2.73;;;12.30;99.90;;;;;;5094738;28;20283;-80
2022/08/08 01:07:49;;;;;;;3.30;3.00;;;12.60;99.90;;;;;;5073169;28;20204;-80
2022/08/08 01:10:53;;;;;;;3.03;2.83;;;12.60;99.90;;;;;;5094393;28;20192;-79
2022/08/08 01:13:55;;;;;;;3.47;2.90;;;12.60;99.90;;;;;;5094437;28;20218;-79
2022/08/08 01:16:50;;;;;;;4.60;2.90;;;12.40;99.90;;;;;;5094179;28;20199;-80
2022/08/08 01:20:13;;;;;;;4.50;3.20;;;12.30;99.90;;;;;;5094371;28;20246;-80
2022/08/08 01:23:05;;;;;;;3.13;2.83;;;12.20;99.90;;;;;;5094072;28;20232;-80
2022/08/08 01:26:09;;;;;;;2.90;2.70;;;12.10;99.90;;;;;;5094216;28;20200;-80
2022/08/08 01:29:08;;;;;;;3.60;2.67;;;12.00;99.90;;;;;;5094003;28;20196;-80
2022/08/08 01:32:13;;;;;;;3.23;2.93;;;12.00;99.90;;;;;;5068581;28;20599;-80
2022/08/08 01:35:03;;;;;;;3.50;2.90;;;12.10;99.90;;;;;;5093758;28;20712;-80
2022/08/08 01:38:03;;;;;;;5.07;3.30;;;12.10;99.90;;;;;;5094402;28;20204;-80
2022/08/08 01:40:36;;;;;;;3.83;3.40;;;12.00;99.90;;;;;;5093102;28;20281;-80
2022/08/08 01:43:13;;;;;;;3.77;3.47;;;12.00;99.90;;;;;;5093697;28;20220;-80
2022/08/08 01:45:53;;;;;;;3.90;3.23;;;12.00;99.90;;;;;;5094191;28;20253;-80
2022/08/08 01:48:35;;;;;;;5.43;3.30;;;11.90;99.90;;;;;;5093821;28;20199;-80
2022/08/08 01:51:47;;;;;;;3.73;3.27;;;11.90;99.90;;;;;;5093789;28;20621;-80
2022/08/08 01:54:22;;;;;;;3.40;3.10;;;11.90;99.90;;;;;;5093440;28;20196;-80
2022/08/08 01:57:11;;;;;;;7.47;3.37;;;11.90;99.90;;;;;;5093740;28;20200;-81
2022/08/08 02:00:02;;;;;;;4.13;3.30;;;12.00;99.90;;;;;;5093625;28;20261;-80
2022/08/08 02:02:48;;;;;;;3.60;3.20;;;11.90;99.90;;;;;;5093234;28;20733;-80
2022/08/08 02:05:27;;;;;;;3.50;3.20;;;11.80;99.90;;;;;;5093515;28;20196;-81
2022/08/08 02:08:08;;;;;;;3.60;3.27;;;11.80;99.90;;;;;;5093450;28;20594;-81
2022/08/08 02:10:59;;;;;;;3.83;3.13;;;11.80;99.90;;;;;;5093223;28;20192;-80
2022/08/08 02:13:32;;;;;;;5.37;3.10;;;11.70;99.90;;;;;;5093413;28;20196;-80
2022/08/08 02:16:07;;;;;;;4.30;3.30;;;11.70;99.90;;;;;;5093304;28;20265;-80
2022/08/08 02:18:40;;;;;;;5.07;3.40;;;11.60;99.90;;;;;;5093234;28;20203;-80
2022/08/08 02:24:08;;;;;;;3.60;3.30;;;11.60;99.90;;;;;;5093255;28;20318;-80
2022/08/08 02:26:43;;;;;;;4.40;3.67;;;11.50;99.90;;;;;;5093275;28;20204;-80
2022/08/08 02:29:24;;;;;;;4.00;3.50;;;11.50;99.90;;;;;;5093008;28;20650;-80
2022/08/08 02:32:22;;;;;;;4.00;3.33;;;11.40;99.90;;;;;;5092916;28;20203;-80
2022/08/08 02:35:20;;;;;;;3.83;2.83;;;11.40;99.90;;;;;;5093027;28;20257;-80
2022/08/08 02:38:18;;;;;;;4.30;3.90;;;11.40;99.90;;;;;;5092904;28;20655;-80
2022/08/08 02:41:03;;;;;;;3.30;3.00;;;11.40;99.90;;;;;;5067184;28;20236;-80
2022/08/08 02:44:14;;;;;;;3.67;3.33;;;11.40;99.90;;;;;;5092836;28;20220;-80
2022/08/08 02:46:52;;;;;;;3.50;3.20;;;11.40;99.90;;;;;;4991128;28;20196;-81
2022/08/08 02:49:59;;;;;;;4.23;3.77;;;11.40;99.90;;;;;;4991101;28;20199;-81
2022/08/08 02:52:47;;;;;;;3.97;3.67;;;11.40;99.90;;;;;;5036427;28;20204;-80
2022/08/08 02:55:42;;;;;;;4.70;4.03;;;11.50;99.90;;;;;;5097148;28;20197;-80
2022/08/08 02:58:50;;;;;;;5.03;3.73;;;11.40;99.90;;;;;;5096837;28;20204;-80
2022/08/08 03:01:37;;;;;;;4.47;3.70;;;11.40;99.90;;;;;;5097010;28;20192;-80
2022/08/08 03:04:51;;;;;;;3.97;3.57;;;11.40;99.90;;;;;;5096725;28;20283;-80
2022/08/08 03:08:06;;;;;;;4.70;4.00;;;11.50;99.90;;;;;;5096607;28;20269;-80
2022/08/08 03:11:06;;;;;;;5.23;4.10;;;11.40;99.90;;;;;;5096697;28;20252;-80
2022/08/08 03:14:08;;;;;;;4.13;3.73;;;11.40;99.90;;;;;;5096507;28;20265;-81
2022/08/08 03:16:45;;;;;;;4.40;3.67;;;11.30;99.90;;;;;;5057590;28;20643;-80
2022/08/08 03:19:25;;;;;;;4.07;3.77;;;11.30;99.90;;;;;;5096546;28;20562;-80
2022/08/08 03:21:51;;;;;;;4.40;4.00;;;11.20;99.90;;;;;;5096453;28;20204;-81
2022/08/08 03:24:20;;;;;;;4.17;3.60;;;11.20;99.90;;;;;;5096588;28;20321;-81
2022/08/08 03:26:52;;;;;;;4.13;3.67;;;11.10;99.90;;;;;;5096426;28;20196;-81
2022/08/08 03:29:21;;;;;;;4.10;3.63;;;11.10;99.90;;;;;;5096777;28;20200;-81
2022/08/08 03:34:33;;;;;;;5.63;3.80;;;10.90;99.90;;;;;;5096348;28;20207;-80
2022/08/08 03:37:00;;;;;;;4.70;4.30;;;10.90;99.90;;;;;;5097867;28;20283;-79
2022/08/08 03:39:28;;;;;;;5.80;4.10;;;10.90;99.90;;;;;;5098349;28;20541;-78
2022/08/08 03:41:54;;;;;;;4.30;3.83;;;10.90;99.90;;;;;;5098796;28;20227;-79
2022/08/08 03:44:21;;;;;;;5.00;3.80;;;10.90;99.90;;;;;;5098799;28;20265;-79
2022/08/08 03:46:49;;;;;;;5.70;4.10;;;10.80;99.90;;;;;;5098871;28;20200;-80
2022/08/08 03:49:25;;;;;;;7.30;4.23;;;10.70;99.90;;;;;;5096509;28;20192;-81
2022/08/08 03:51:53;;;;;;;4.77;4.00;;;10.70;99.90;;;;;;5095996;28;20200;-81
2022/08/08 03:54:20;;;;;;;3.80;3.50;;;10.70;99.90;;;;;;5096026;28;20246;-80
2022/08/08 03:56:48;;;;;;;4.37;4.00;;;10.70;99.90;;;;;;5095660;28;20673;-81
2022/08/08 03:59:15;;;;;;;4.40;3.83;;;10.70;99.90;;;;;;5095616;28;20249;-81
2022/08/08 04:01:42;;;;;;;4.50;4.10;;;10.60;99.90;;;;;;5095862;28;20223;-80
2022/08/08 04:04:09;;;;;;;5.73;4.60;;;10.60;99.90;;;;;;5095293;28;20224;-81
2022/08/08 04:06:38;;;;;;;5.20;4.30;;;10.60;99.90;;;;;;5095672;28;20265;-80
2022/08/08 04:09:06;;;;;;;6.00;4.20;;;10.50;99.90;;;;;;5095671;28;20254;-80
2022/08/08 04:11:33;;;;;;;4.37;3.97;;;10.60;99.90;;;;;;5095522;28;20196;-80
2022/08/08 04:14:01;;;;;;;4.77;4.37;;;10.60;99.90;;;;;;5095338;28;20207;-80
2022/08/08 04:16:28;;;;;;;5.40;4.43;;;10.70;99.90;;;;;;5095371;28;20205;-80
2022/08/08 04:18:55;;;;;;;6.47;4.30;;;10.70;99.90;;;;;;5095454;28;20193;-80
2022/08/08 04:21:21;;;;;;;4.60;4.20;;;10.70;99.90;;;;;;5095349;28;20196;-80
2022/08/08 04:23:48;;;;;;;4.87;4.30;;;10.80;99.90;;;;;;5095276;28;20220;-80
2022/08/08 04:26:15;;;;;;;7.97;4.50;;;10.80;99.90;;;;;;5095600;28;20265;-81
2022/08/08 04:28:42;;;;;;;4.50;4.10;;;10.90;99.90;;;;;;5095378;28;20417;-82
2022/08/08 04:31:10;;;;;;;4.77;4.30;;;10.90;99.90;;;;;;5095077;28;20207;-82
2022/08/08 04:33:36;;;;;;;4.60;4.20;;;11.00;99.90;;;;;;5095058;28;20242;-81
2022/08/08 04:36:03;;;;;;;5.50;4.00;;;11.10;99.90;;;;;;5095014;28;20196;-81
2022/08/08 04:38:30;;;;;;;4.80;4.10;;;11.20;99.90;;;;;;5094780;28;20200;-80
2022/08/08 04:40:56;;;;;;;4.60;4.20;;;11.20;99.90;;;;;;5094573;28;20565;-81
2022/08/08 04:43:23;;;;;;;6.23;4.00;;;11.30;99.90;;;;;;5094915;28;20231;-80
2022/08/08 04:45:50;;;;;;;5.70;4.10;;;11.40;99.90;;;;;;5094823;28;20556;-81
2022/08/08 04:48:18;;;;;;;4.60;3.87;;;11.50;99.90;;;;;;5094900;28;20196;-80
2022/08/08 04:50:45;;;;;;;5.40;4.10;;;11.70;99.90;;;;;;5094641;28;20200;-81
2022/08/08 04:53:11;;;;;;;4.90;4.20;;;12.00;99.90;;;;;;5094643;28;20204;-81
2022/08/08 04:55:39;;;;;;;5.33;4.10;;;12.10;99.90;;;;;;5094387;28;20200;-81
2022/08/08 04:58:06;;;;;;;4.83;4.10;;;12.30;99.90;;;;;;5094658;28;20196;-81
2022/08/08 05:00:32;;;;;;;4.40;4.00;;;12.30;99.90;;;;;;5094583;28;20196;-80
2022/08/08 05:02:59;;;;;;;5.17;4.00;;;12.40;99.90;;;;;;5094522;28;20238;-80
2022/08/08 05:05:27;;;;;;;5.13;3.83;;;12.50;99.90;;;;;;5094356;28;20203;-81
2022/08/08 05:07:53;;;;;;;4.20;3.80;;;12.60;99.90;;;;;;5094230;28;20204;-80
2022/08/08 05:10:20;;;;;;;5.97;3.80;;;12.70;99.90;;;;;;5094572;28;20238;-80
2022/08/08 05:12:47;;;;;;;5.33;3.77;;;12.80;99.90;;;;;;5094335;28;20717;-79
2022/08/08 05:15:13;;;;;;;4.83;4.13;;;12.90;99.90;;;;;;5093294;28;20250;-80
2022/08/08 05:17:40;;;;;;;5.73;4.13;;;13.00;99.90;;;;;;5094172;28;20196;-80
2022/08/08 05:20:09;;;;;;;5.17;3.80;;;13.20;99.90;;;;;;5094221;28;20201;-80
2022/08/08 05:22:37;;;;;;;3.80;3.40;;;13.20;99.90;;;;;;5093879;28;20712;-80
2022/08/08 05:25:04;;;;;;;6.20;4.23;;;13.20;99.90;;;;;;5094233;28;20196;-80
2022/08/08 05:27:30;;;;;;;4.63;3.90;;;13.40;99.90;;;;;;5094224;28;20197;-80
2022/08/08 05:29:57;;;;;;;5.13;3.90;;;13.50;99.90;;;;;;5094045;28;20244;-80
2022/08/08 05:32:24;;;;;;;4.10;3.70;;;13.80;99.90;;;;;;5093823;28;20242;-80
2022/08/08 05:34:51;;;;;;;4.90;4.13;;;13.90;99.90;;;;;;5093717;28;20611;-80
2022/08/08 05:37:22;;;;;;;4.77;4.03;;;13.90;99.90;;;;;;5093671;28;20242;-80
2022/08/08 05:39:53;;;;;;;5.77;4.20;;;14.00;99.90;;;;;;5093694;28;20281;-80
2022/08/08 05:42:23;;;;;;;6.60;3.80;;;14.10;99.90;;;;;;5093743;28;20537;-80
2022/08/08 05:44:50;;;;;;;5.90;4.27;;;14.20;99.90;;;;;;5093719;28;20228;-80
2022/08/08 05:47:17;;;;;;;5.50;5.00;;;14.40;99.90;;;;;;5093578;28;20204;-80
2022/08/08 05:49:46;;;;;;;4.80;3.70;;;14.50;99.90;;;;;;5093083;28;20192;-80
2022/08/08 05:52:13;;;;;;;8.27;3.60;;;14.70;99.90;;;;;;5093816;28;20288;-80
2022/08/08 05:54:40;;;;;;;4.70;3.93;;;14.70;99.90;;;;;;5093238;28;20651;-80
2022/08/08 05:57:15;;;;;;;4.87;3.67;;;14.90;99.90;;;;;;5093662;28;20196;-79
2022/08/08 05:59:43;;;;;;;4.67;3.47;;;14.90;99.90;;;;;;5093706;28;20667;-79
2022/08/08 06:05:04;;;;;;;4.83;3.53;;;15.20;99.90;;;;;;5092047;28;20224;-80
2022/08/08 06:07:32;;;;;;;4.83;3.80;;;15.40;99.90;;;;;;5093386;28;20200;-80
2022/08/08 06:10:01;;;;;;;5.07;3.25;;;15.50;99.90;;;;;;5093460;28;20724;-80
2022/08/08 06:12:30;;;;;;;4.35;3.20;;;15.60;99.90;;;;;;5093059;28;20286;-79
2022/08/08 06:14:57;;;;;;;4.10;2.97;;;15.80;99.90;;;;;;5093097;28;20233;-79
2022/08/08 06:17:26;;;;;;;3.30;3.03;;;16.00;99.90;;;;;;5092936;28;20200;-80
2022/08/08 06:19:54;;;;;;;4.38;2.90;;;16.10;99.90;;;;;;5093176;28;20252;-80
2022/08/08 06:22:21;;;;;;;5.10;3.17;;;16.20;99.90;;;;;;5093018;28;20220;-80
2022/08/08 06:24:49;;;;;;;3.65;2.83;;;16.40;99.90;;;;;;5092853;28;20224;-80
2022/08/08 06:27:18;;;;;;;3.85;2.92;;;16.50;99.90;;;;;;5093471;28;20211;-80
2022/08/08 06:29:55;;;;;;;2.85;2.65;;;16.70;99.90;;;;;;5094509;28;20261;-80
2022/08/08 06:32:28;;;;;;;3.47;3.05;;;16.80;99.90;;;;;;5094577;28;20200;-80
2022/08/08 06:34:57;;;;;;;4.45;3.13;;;16.90;99.90;;;;;;5094589;28;20286;-80
2022/08/08 06:37:31;;;;;;;3.08;2.78;;;17.00;99.90;;;;;;5096634;28;20201;-78
2022/08/08 06:40:04;;;;;;;3.70;2.33;;;17.20;99.90;;;;;;5094993;28;20281;-80
2022/08/08 06:42:35;;;;;;;3.35;2.58;;;17.40;99.90;;;;;;5092925;28;20203;-80
2022/08/08 06:45:05;;;;;;;2.85;2.42;;;17.60;99.90;;;;;;5092871;28;20256;-80
2022/08/08 06:47:34;;;;;;;5.20;3.10;;;17.70;99.90;;;;;;5092831;28;20196;-80
2022/08/08 06:50:01;;;;;;;4.70;2.53;;;17.80;99.90;;;;;;5092771;28;20249;-81
2022/08/08 06:52:27;;;;;;;6.88;2.92;;;17.90;99.90;;;;;;5093161;28;20197;-80
2022/08/08 06:54:57;;;;;;;3.13;2.55;;;18.00;99.90;;;;;;5093122;28;20610;-80
2022/08/08 06:57:25;;;;;;;3.47;2.33;;;18.10;99.90;;;;;;5092954;28;20234;-81
2022/08/08 06:59:52;;;;;;;3.47;2.60;;;18.20;99.90;;;;;;5092825;28;20207;-81
2022/08/08 07:02:24;;;;;;;3.85;2.70;;;18.30;99.90;;;;;;5092742;28;20249;-80
2022/08/08 07:04:54;;;;;;;3.75;2.95;;;18.40;99.90;;;;;;5092376;28;20216;-80
2022/08/08 07:07:33;;;;;;;3.67;2.70;;;18.60;99.90;;;;;;5092876;28;20197;-80
2022/08/08 07:10:03;;;;;;;3.30;2.60;;;18.70;99.90;;;;;;5092530;28;20197;-80
2022/08/08 07:12:38;;;;;;;3.10;2.80;;;18.80;99.90;;;;;;5092529;28;20551;-80
2022/08/08 07:15:07;;;;;;;5.18;2.70;;;18.90;99.90;;;;;;5092519;28;20286;-80
2022/08/08 07:17:37;;;;;;;4.00;2.75;;;18.90;99.90;;;;;;5092654;28;20204;-80
2022/08/08 07:20:07;;;;;;;3.58;3.10;;;19.00;99.90;;;;;;5092364;28;20215;-81
2022/08/08 07:22:42;;;;;;;4.55;3.03;;;19.20;99.90;;;;;;5092308;28;20367;-76
2022/08/08 07:25:10;;;;;;;5.55;3.13;;;19.30;99.90;;;;;;5092205;28;20231;-75
2022/08/08 07:27:41;;;;;;;2.88;2.65;;;19.50;99.90;;;;;;5092188;28;20228;-73
2022/08/08 07:30:09;;;;;;;4.20;2.70;;;19.60;99.90;;;;;;5092465;28;20250;-75
2022/08/08 07:32:38;;;;;;;2.95;2.70;;;19.80;99.90;;;;;;5092453;28;20196;-76
2022/08/08 07:35:06;;;;;;;4.80;2.80;;;20.00;99.90;;;;;;5092473;28;20471;-76
2022/08/08 07:37:35;;;;;;;3.47;2.85;;;20.30;99.90;;;;;;5092349;28;20204;-79
2022/08/08 07:40:02;;;;;;;3.53;2.92;;;20.50;99.90;;;;;;5095850;28;20254;-78
2022/08/08 07:42:30;;;;;;;4.22;3.00;;;20.80;99.90;;;;;;5095637;28;20713;-78
2022/08/08 07:44:56;;;;;;;4.38;2.95;;;21.00;99.90;;;;;;5095693;28;20732;-79
2022/08/08 07:47:23;;;;;;;3.47;3.17;;;21.20;99.90;;;;;;5095779;28;20594;-79
2022/08/08 07:49:51;;;;;;;3.70;3.00;;;21.20;99.90;;;;;;5095799;28;20196;-79
2022/08/08 07:52:18;;;;;;;3.25;2.90;;;21.40;99.90;;;;;;5095730;28;20197;-79
2022/08/08 07:54:51;;;;;;;7.22;3.33;;;21.60;99.90;;;;;;5095674;28;20218;-79
2022/08/08 07:57:25;;;;;;;2.95;2.75;;;21.80;99.90;;;;;;5095934;28;20280;-79
2022/08/08 08:00:01;;;;;;;5.10;2.72;;;21.80;99.90;;;;;;5095694;28;20202;-78
2022/08/08 08:02:37;;;;;;;4.72;3.45;;;22.00;99.90;;;;;;5095638;28;20203;-78
2022/08/08 08:05:11;;;;;;;7.60;3.13;;;22.20;99.90;;;;;;5095284;28;20223;-78
2022/08/08 08:07:40;;;;;;;4.47;3.08;;;22.20;99.90;;;;;;5095761;28;20366;-79
2022/08/08 08:10:09;;;;;;;3.53;2.90;;;22.40;99.90;;;;;;5095734;28;20239;-79
2022/08/08 08:12:39;;;;;;;4.35;2.70;;;22.70;99.90;;;;;;5095473;28;20485;-78
2022/08/08 08:15:07;;;;;;;2.63;2.40;;;22.90;99.90;;;;;;5095288;28;20193;-79
2022/08/08 08:17:44;;;;;;;4.72;2.58;;;23.20;99.90;;;;;;5095160;28;20204;-78
2022/08/08 08:20:14;;;;;;;4.93;2.35;;;23.30;99.00;;;;;;5095380;28;20255;-79
2022/08/08 08:22:41;;;;;;;2.10;1.90;;;23.50;98.00;;;;;;5095237;28;20257;-77
2022/08/08 08:25:08;;;;;;;4.88;2.20;;;23.60;95.10;;;;;;5095130;28;20301;-78
2022/08/08 08:27:35;;;;;;;4.53;2.50;;;23.70;93.90;;;;;;5095094;28;20196;-79
2022/08/08 08:30:02;;;;;;;3.53;1.92;;;23.90;90.40;;;;;;5094860;28;20196;-78
2022/08/08 08:32:30;;;;;;;4.60;2.10;;;24.00;88.60;;;;;;5094925;28;20555;-76
2022/08/08 08:34:57;;;;;;;3.70;2.03;;;24.20;83.50;;;;;;5095089;28;20196;-78
2022/08/08 08:37:26;;;;;;;2.13;1.67;;;24.30;83.20;;;;;;5095060;28;20291;-77
2022/08/08 08:39:52;;;;;;;3.38;1.83;;;24.40;80.00;;;;;;5094733;28;20282;-78
2022/08/08 08:42:20;;;;;;;3.08;1.95;;;24.50;78.20;;;;;;5094857;28;20219;-78
2022/08/08 08:44:48;;;;;;;4.88;1.75;;;24.70;74.90;;;;;;5094561;28;20216;-78
2022/08/08 08:47:16;;;;;;;2.83;1.80;;;25.00;72.40;;;;;;5094858;28;20242;-78
2022/08/08 08:49:43;;;;;;;3.08;1.83;;;24.80;70.20;;;;;;5094417;28;20613;-78
2022/08/08 08:52:13;;;;;;;4.00;1.92;;;25.00;70.00;;;;;;5094485;28;20720;-78
2022/08/08 08:54:43;;;;;;;2.22;1.80;;;25.30;67.20;;;;;;5094870;28;20196;-78
2022/08/08 08:57:10;;;;;;;1.88;1.67;;;25.50;65.60;;;;;;5094571;28;20200;-78
2022/08/08 08:59:42;;;;;;;2.72;1.80;;;25.80;64.80;;;;;;5094505;28;20728;-78
2022/08/08 09:02:18;;;;;;;2.08;1.80;;;25.80;62.20;;;;;;5094589;28;20238;-77
2022/08/08 09:04:48;;;;;;;2.08;1.77;;;25.90;60.10;;;;;;5094190;28;20624;-78
2022/08/08 09:07:19;;;;;;;2.00;1.80;;;26.10;57.00;;;;;;5094454;28;20289;-77
2022/08/08 09:09:50;;;;;;;2.72;1.70;;;26.20;55.20;;;;;;5094325;28;20207;-76
2022/08/08 09:12:19;;;;;;;5.53;1.80;;;26.50;54.40;;;;;;5094446;28;20204;-77
2022/08/08 09:14:46;;;;;;;2.00;1.80;;;26.50;55.20;;;;;;5094064;28;20287;-77
2022/08/08 09:17:14;;;;;;;2.28;1.90;;;26.50;54.00;;;;;;5094152;28;20242;-77
2022/08/08 09:19:41;;;;;;;2.75;1.92;;;26.70;54.00;;;;;;5094394;28;20196;-77
2022/08/08 09:22:08;;;;;;;3.03;1.50;;;27.10;52.20;;;;;;5094312;28;20265;-78
2022/08/08 09:24:35;;;;;;;2.97;1.50;;;27.20;49.50;;;;;;5094912;28;20224;-78
2022/08/08 09:27:07;;;;;;;1.55;1.38;;;27.40;47.90;;;;;;5095073;28;20290;-78
2022/08/08 09:29:49;;;;;;;2.67;1.80;;;27.30;44.30;;;;;;5094830;28;20294;-77
2022/08/08 09:32:17;;;;;;;1.90;1.58;;;27.60;45.50;;;;;;5093875;28;20208;-77
2022/08/08 09:34:49;;;;;;;4.97;2.08;;;27.90;45.40;;;;;;5093754;28;20242;-77
2022/08/08 09:37:18;;;;;;;4.72;1.50;;;28.20;42.20;;;;;;5093998;28;20250;-77
2022/08/08 09:39:57;;;;;;;2.95;1.67;;;28.40;40.80;;;;;;5093688;28;20240;-77
2022/08/08 09:42:32;;;;;;;2.58;2.08;;;28.40;40.50;;;;;;5093699;28;20219;-77
2022/08/08 09:45:05;;;;;;;2.50;1.70;;;28.50;40.10;;;;;;5093535;28;20220;-77
2022/08/08 09:47:34;;;;;;;2.58;1.40;;;28.60;39.80;;;;;;5093816;28;20206;-79
2022/08/08 09:50:05;;;;;;;2.80;1.75;;;28.70;39.10;;;;;;5093615;28;20192;-78
2022/08/08 09:52:33;;;;;;;3.58;1.35;;;28.90;36.70;;;;;;5093643;28;20271;-78
2022/08/08 09:55:00;;;;;;;2.20;1.30;;;29.00;34.70;;;;;;5093450;28;20196;-78
2022/08/08 09:57:34;;;;;;;4.32;1.42;;;29.40;34.00;;;;;;5093287;28;20253;-78
2022/08/08 10:00:01;;;;;;;2.03;1.45;;;29.60;33.40;;;;;;5093594;28;20212;-78
2022/08/08 10:02:35;;;;;;;2.70;1.83;;;29.60;31.60;;;;;;5092934;28;20201;-78
2022/08/08 10:05:07;;;;;;;4.18;1.40;;;29.70;31.10;;;;;;5093335;28;20224;-78
2022/08/08 10:07:34;;;;;;;3.35;1.52;;;29.90;30.40;;;;;;5093226;28;20209;-78
2022/08/08 10:10:01;;;;;;;1.80;1.40;;;29.70;30.80;;;;;;5093128;28;20218;-78
2022/08/08 10:12:33;;;;;;;2.67;1.40;;;30.00;30.00;;;;;;5093041;28;20204;-78
2022/08/08 10:15:01;;;;;;;3.78;1.60;;;30.00;29.20;;;;;;5093202;28;20253;-78
2022/08/08 10:17:28;;;;;;;2.45;1.45;;;30.50;29.10;;;;;;5093270;28;20200;-78
2022/08/08 10:19:58;;;;;;;1.77;1.30;;;30.60;27.90;;;;;;5093127;28;20249;-78
2022/08/08 10:22:26;;;;;;;2.60;1.50;;;30.70;27.70;;;;;;5092950;28;20652;-77
2022/08/08 10:24:59;;;;;;;2.35;1.70;;;30.70;26.40;;;;;;5092783;28;20216;-79
2022/08/08 10:27:28;;;;;;;6.35;1.83;;;31.10;26.60;;;;;;5093182;28;20227;-78
2022/08/08 10:30:00;;;;;;;3.53;1.35;;;31.50;26.80;;;;;;5092993;28;20196;-78
2022/08/08 10:32:39;;;;;;;2.88;1.48;;;31.20;26.40;;;;;;5093041;28;20196;-79
2022/08/08 10:35:12;;;;;;;1.63;1.20;;;31.60;26.30;;;;;;5092827;28;20200;-78
2022/08/08 10:37:41;;;;;;;1.58;1.20;;;32.00;26.30;;;;;;5092801;28;20631;-78
2022/08/08 10:40:14;;;;;;;2.92;1.60;;;32.10;25.30;;;;;;5092649;28;20768;-78
2022/08/08 10:42:41;;;;;;;1.48;1.30;;;30.90;25.70;;;;;;5092967;28;20256;-77
2022/08/08 10:45:11;;;;;;;2.85;1.30;;;31.60;26.00;;;;;;5092719;28;20261;-78
2022/08/08 10:47:38;;;;;;;2.33;1.27;;;31.70;25.10;;;;;;5092827;28;20200;-77
2022/08/08 10:50:07;;;;;;;3.05;1.15;;;32.50;24.70;;;;;;5093097;28;20196;-78
2022/08/08 10:52:35;;;;;;;1.30;1.10;;;33.70;24.00;;;;;;5092476;28;20678;-78
2022/08/08 10:55:04;;;;;;;3.35;1.20;;;33.80;23.10;;;;;;5092785;28;20202;-77
2022/08/08 10:57:35;;;;;;;2.47;1.30;;;34.10;22.80;;;;;;5092613;28;20245;-78
2022/08/08 11:00:03;;;;;;;3.03;1.40;;;34.80;21.90;;;;;;5092561;28;20676;-77
2022/08/08 11:02:33;;;;;;;3.35;1.42;;;35.30;20.70;;;;;;5092919;28;20286;-78
2022/08/08 11:05:01;;;;;;;1.85;1.33;;;35.30;20.80;;;;;;5092730;28;20624;-77
2022/08/08 11:07:29;;;;;;;4.28;1.45;;;35.80;20.50;;;;;;5092707;28;20200;-77
2022/08/08 11:09:56;;;;;;;3.15;1.17;;;36.30;19.50;;;;;;5092451;28;20705;-77
2022/08/08 11:12:23;;;;;;;1.33;1.23;;;36.30;18.50;;;;;;5092509;28;20199;-76
2022/08/08 11:14:51;;;;;;;3.58;1.30;;;35.70;18.40;;;;;;5096083;28;20226;-77
2022/08/08 11:17:22;;;;;;;2.03;1.35;;;36.10;18.80;;;;;;5096625;28;20245;-77
2022/08/08 11:19:52;;;;;;;2.20;1.40;;;37.00;18.00;;;;;;5096439;28;20202;-77
2022/08/08 11:22:25;;;;;;;1.60;1.27;;;37.40;17.40;;;;;;5096567;28;20223;-77
2022/08/08 11:24:54;;;;;;;2.63;1.20;;;37.20;17.00;;;;;;5096315;28;20679;-79
2022/08/08 11:27:24;;;;;;;1.65;1.40;;;35.10;17.00;;;;;;5096275;28;20200;-78
2022/08/08 11:29:56;;;;;;;2.92;1.40;;;34.80;17.90;;;;;;5096478;28;20222;-77
2022/08/08 11:32:26;;;;;;;1.77;1.45;;;35.70;17.90;;;;;;5096204;28;20256;-77
2022/08/08 11:34:59;;;;;;;3.03;1.33;;;37.40;16.70;;;;;;5096241;28;20203;-78
2022/08/08 11:37:27;;;;;;;2.45;1.17;;;38.10;15.90;;;;;;5096131;28;20195;-78
2022/08/08 11:39:55;;;;;;;1.98;1.30;;;38.60;15.00;;;;;;5096101;28;20231;-78
2022/08/08 11:42:24;;;;;;;2.58;1.50;;;38.90;14.80;;;;;;5096045;28;20196;-77
2022/08/08 11:44:52;;;;;;;4.00;1.50;;;39.40;14.60;;;;;;5096018;28;20318;-78
2022/08/08 11:47:19;;;;;;;1.85;1.30;;;38.60;14.80;;;;;;5095878;28;20192;-78
2022/08/08 11:49:49;;;;;;;5.10;1.50;;;38.90;15.10;;;;;;5095935;28;20200;-78
2022/08/08 11:52:18;;;;;;;3.90;1.38;;;39.80;14.20;;;;;;5095844;28;20204;-78
2022/08/08 11:54:45;;;;;;;2.25;1.40;;;40.30;13.70;;;;;;5096056;28;20294;-77
2022/08/08 11:57:18;;;;;;;1.65;1.30;;;40.40;13.10;;;;;;5096008;28;20196;-78
2022/08/08 11:59:47;;;;;;;2.60;1.42;;;40.60;12.40;;;;;;5095873;28;20200;-77
2022/08/08 12:02:14;;;;;;;1.73;1.50;;;40.80;12.10;;;;;;5095805;28;20204;-77
2022/08/08 12:04:42;;;;;;;2.30;1.50;;;40.80;12.10;;;;;;5095547;28;20195;-78
2022/08/08 12:07:09;;;;;;;4.00;1.40;;;40.10;11.70;;;;;;5098921;28;20222;-78
2022/08/08 12:09:36;;;;;;;2.15;1.40;;;40.60;11.60;;;;;;5097738;28;20204;-77
2022/08/08 12:12:04;;;;;;;1.40;1.30;;;41.00;11.20;;;;;;5096386;28;20265;-78
2022/08/08 12:14:31;;;;;;;2.03;1.20;;;39.20;11.30;;;;;;5097038;28;20245;-78
2022/08/08 12:16:58;;;;;;;1.88;1.30;;;39.80;11.40;;;;;;5097844;28;20196;-77
2022/08/08 12:19:25;;;;;;;1.55;1.30;;;40.40;11.30;;;;;;5096453;28;20200;-77
2022/08/08 12:21:52;;;;;;;2.00;1.30;;;41.30;10.70;;;;;;5095421;28;20223;-78
2022/08/08 12:24:21;;;;;;;2.15;1.38;;;41.20;10.70;;;;;;5094863;28;20196;-78
2022/08/08 12:26:50;;;;;;;1.60;1.40;;;39.00;11.00;;;;;;5095309;28;20231;-78
2022/08/08 12:29:20;;;;;;;3.10;1.50;;;40.60;10.80;;;;;;5095275;28;20200;-78
2022/08/08 12:31:47;;;;;;;2.20;1.60;;;41.20;9.90;;;;;;5095072;28;20192;-78
2022/08/08 12:34:14;;;;;;;3.20;1.50;;;41.70;9.70;;;;;;5095063;28;20659;-77
2022/08/08 12:36:42;;;;;;;2.03;1.63;;;41.70;9.60;;;;;;5095263;28;20252;-78
2022/08/08 12:39:09;;;;;;;2.05;1.50;;;42.10;9.40;;;;;;5094981;28;20204;-78
2022/08/08 12:41:36;;;;;;;2.40;1.40;;;41.90;8.70;;;;;;5094880;28;20220;-78
2022/08/08 12:44:12;;;;;;;1.95;1.50;;;41.20;8.80;;;;;;5094853;28;20200;-78
2022/08/08 12:46:38;;;;;;;1.70;1.42;;;41.50;9.60;;;;;;5094841;28;20682;-77
2022/08/08 12:49:06;;;;;;;1.50;1.40;;;42.50;9.20;;;;;;5095029;28;20245;-77
2022/08/08 12:51:40;;;;;;;1.65;1.55;;;42.50;9.10;;;;;;5094726;28;20679;-76
2022/08/08 12:54:07;;;;;;;1.77;1.67;;;42.00;9.30;;;;;;5094777;28;20192;-76
2022/08/08 12:56:35;;;;;;;1.70;1.60;;;42.60;9.10;;;;;;5094611;28;20226;-77
2022/08/08 12:59:12;;;;;;;4.90;1.55;;;42.20;8.80;;;;;;5094541;28;20664;-78
2022/08/08 13:01:41;;;;;;;3.15;1.58;;;42.20;8.50;;;;;;5094668;28;20207;-78
2022/08/08 13:04:15;;;;;;;2.28;1.60;;;42.40;8.60;;;;;;5094678;28;20196;-77
2022/08/08 13:06:56;;;;;;;3.05;1.40;;;42.40;8.70;;;;;;5094352;28;20272;-78
2022/08/08 13:09:32;;;;;;;2.10;1.60;;;42.60;8.60;;;;;;5094304;28;20233;-78
2022/08/08 13:11:58;;;;;;;1.90;1.55;;;40.50;8.50;;;;;;5094500;28;20200;-78
2022/08/08 13:14:37;;;;;;;1.63;1.50;;;39.60;9.20;;;;;;5094386;28;20196;-77
2022/08/08 13:17:06;;;;;;;2.10;1.50;;;40.50;9.60;;;;;;5094333;28;20253;-77
2022/08/08 13:19:33;;;;;;;3.17;1.58;;;42.20;9.30;;;;;;5094206;28;20196;-78
2022/08/08 13:22:00;;;;;;;1.40;1.30;;;42.40;8.70;;;;;;5094336;28;20306;-78
2022/08/08 13:24:28;;;;;;;3.72;1.50;;;42.40;8.80;;;;;;5094121;28;20629;-78
2022/08/08 13:27:02;;;;;;;4.03;1.50;;;43.50;8.30;;;;;;5093971;28;20223;-77
2022/08/08 13:29:29;;;;;;;1.70;1.40;;;43.70;7.90;;;;;;5094060;28;20280;-78